Time;durP1;ratioP1;P1;durP2;ratioP2;P2;SDS_P1;SDS_P2;PMS_P1;PMS_P2;Temp;Humidity;BMP_temperature;BMP_pressure;BME280_temperature;BME280_humidity;BME280_pressure;Samples;Min_cycle;Max_cycle;Signal;HPM_P1;HPM_P2
2022/04/13 00:00:43;;;;;;;;;2.00;2.00;;;;;19.08;48.96;100705.38;2105831;28;47277;-57
2022/04/13 00:01:44;;;;;;;;;2.00;2.00;;;;;19.07;49.28;100701.84;2096707;28;47508;-57
2022/04/13 00:02:44;;;;;;;;;1.33;1.33;;;;;19.07;49.40;100695.59;2096429;28;47993;-58
2022/04/13 00:03:46;;;;;;;;;2.00;2.00;;;;;19.09;49.22;100707.13;2105808;28;47428;-59
2022/04/13 00:04:47;;;;;;;;;2.25;2.00;;;;;19.09;49.29;100701.75;2105527;28;47654;-59
2022/04/13 00:05:48;;;;;;;;;0.67;0.67;;;;;19.07;49.04;100688.38;2105582;28;48089;-61
2022/04/13 00:06:49;;;;;;;;;3.00;3.00;;;;;19.08;49.31;100692.81;2096908;28;47506;-58
2022/04/13 00:07:50;;;;;;;;;2.00;2.00;;;;;19.08;48.86;100700.00;2096647;28;48117;-57
2022/04/13 00:08:50;;;;;;;;;1.33;1.33;;;;;19.09;49.41;100705.28;2105630;28;47671;-58
2022/04/13 00:09:51;;;;;;;;;2.33;2.33;;;;;19.09;49.10;100702.59;2099915;28;47556;-58
2022/04/13 00:10:51;;;;;;;;;1.00;1.00;;;;;19.10;49.24;100700.78;2097064;28;47502;-59
2022/04/13 00:11:54;;;;;;;;;3.00;2.33;;;;;19.09;49.33;100705.28;2097402;28;48043;-59
2022/04/13 00:12:54;;;;;;;;;2.50;1.50;;;;;19.09;49.61;100704.44;2096076;28;47826;-58
2022/04/13 00:13:54;;;;;;;;;2.67;2.00;;;;;19.09;49.30;100710.69;2087893;28;47491;-57
2022/04/13 00:14:55;;;;;;;;;0.00;0.00;;;;;19.08;49.25;100708.94;2101471;28;47487;-59
2022/04/13 00:15:55;;;;;;;;;4.00;3.00;;;;;19.09;49.45;100715.19;2108370;27;47850;-57
2022/04/13 00:16:56;;;;;;;;;3.00;3.00;;;;;19.09;49.47;100707.13;2108172;27;47645;-58
2022/04/13 00:17:56;;;;;;;;;1.33;1.33;;;;;19.08;49.32;100718.84;2111359;27;47521;-57
2022/04/13 00:18:57;;;;;;;;;2.00;2.00;;;;;19.07;49.60;100717.97;2106483;27;47815;-57
2022/04/13 00:20:00;;;;;;;;;2.67;2.67;;;;;19.07;49.45;100711.72;2109854;27;47514;-59
2022/04/13 00:21:01;;;;;;;;;1.75;1.75;;;;;19.06;49.58;100715.38;2110639;27;47629;-58
2022/04/13 00:22:01;;;;;;;;;2.33;2.33;;;;;19.05;49.72;100719.84;2105679;27;46780;-58
2022/04/13 00:23:02;;;;;;;;;2.33;2.33;;;;;19.04;49.78;100718.13;2090268;28;47422;-57
2022/04/13 00:24:03;;;;;;;;;3.00;3.00;;;;;19.04;49.55;100720.81;2091566;28;47408;-59
2022/04/13 00:25:03;;;;;;;;;3.00;3.00;;;;;19.05;49.70;100716.28;2104970;28;47372;-59
2022/04/13 00:26:04;;;;;;;;;1.67;1.67;;;;;19.05;49.83;100725.22;2112736;27;47819;-58
2022/04/13 00:27:04;;;;;;;;;1.00;1.00;;;;;19.04;49.55;100723.50;2105674;28;45907;-57
2022/04/13 00:28:09;;;;;;;;;3.00;2.00;;;;;19.05;49.62;100729.75;2107456;27;47732;-59
2022/04/13 00:29:10;;;;;;;;;2.00;2.00;;;;;19.04;49.71;100726.19;2104482;28;47953;-58
2022/04/13 00:30:11;;;;;;;;;2.00;2.00;;;;;19.04;49.59;100728.88;2102533;28;47755;-58
2022/04/13 00:31:11;;;;;;;;;0.00;0.00;;;;;19.04;49.82;100722.63;2114085;27;47667;-58
2022/04/13 00:32:11;;;;;;;;;1.33;1.33;;;;;19.03;49.97;100724.47;2113929;27;47746;-57
2022/04/13 00:33:12;;;;;;;;;2.00;2.00;;;;;19.05;50.00;100727.06;2111142;27;47654;-58
2022/04/13 00:34:12;;;;;;;;;2.00;2.00;;;;;19.06;49.70;100726.13;2103154;28;46669;-58
2022/04/13 00:35:13;;;;;;;;;2.00;2.00;;;;;19.04;49.73;100731.56;2104293;28;47827;-58
2022/04/13 00:36:13;;;;;;;;;2.00;2.00;;;;;19.04;49.86;100728.88;2113701;27;47452;-58
2022/04/13 00:37:14;;;;;;;;;0.33;0.00;;;;;19.05;50.01;100732.44;2086990;28;48219;-58
2022/04/13 00:38:14;;;;;;;;;2.00;2.00;;;;;19.05;50.17;100733.31;2085168;28;47529;-57
2022/04/13 00:39:15;;;;;;;;;3.33;3.33;;;;;19.05;50.10;100727.06;2110796;27;47800;-58
2022/04/13 00:40:15;;;;;;;;;2.67;1.67;;;;;19.05;50.21;100725.22;2113957;27;47583;-58
2022/04/13 00:41:17;;;;;;;;;2.00;2.00;;;;;19.07;50.16;100733.25;2110714;27;48075;-59
2022/04/13 00:42:18;;;;;;;;;3.00;3.00;;;;;19.07;49.95;100727.88;2102533;28;47663;-60
2022/04/13 00:43:18;;;;;;;;;3.00;2.00;;;;;19.07;49.91;100726.03;2104610;28;47767;-57
2022/04/13 00:44:18;;;;;;;;;2.00;2.00;;;;;19.06;49.94;100727.00;2118432;27;47678;-59
2022/04/13 00:45:19;;;;;;;;;2.33;1.00;;;;;19.06;49.89;100732.38;2120972;27;47997;-60
2022/04/13 00:46:19;;;;;;;;;1.00;1.00;;;;;19.06;50.03;100726.13;2107050;27;47363;-58
2022/04/13 00:47:20;;;;;;;;;1.67;1.00;;;;;19.06;50.02;100729.69;2105477;28;48063;-58
2022/04/13 00:48:37;;;;;;;;;4.50;2.75;;;;;19.06;49.87;100727.00;2105426;28;47298;-60
2022/04/13 00:49:38;;;;;;;;;3.00;1.25;;;;;19.05;49.97;100725.22;2112353;27;48084;-60
2022/04/13 00:50:38;;;;;;;;;4.33;2.67;;;;;19.06;50.11;100726.13;2113611;27;47377;-58
2022/04/13 00:51:38;;;;;;;;;2.00;2.00;;;;;19.06;50.19;100720.75;2114023;27;47453;-58
2022/04/13 00:52:43;;;;;;;;;1.33;1.33;;;;;19.06;50.03;100721.63;2111149;27;47602;-59
2022/04/13 00:53:45;;;;;;;;;1.50;1.50;;;;;19.06;50.15;100718.06;2111238;27;48210;-57
2022/04/13 00:54:48;;;;;;;;;2.00;2.00;;;;;19.07;50.18;100711.72;2108071;27;48278;-58
2022/04/13 00:55:53;;;;;;;;;2.25;2.25;;;;;19.06;50.12;100704.63;2108530;27;47871;-59
2022/04/13 00:56:55;;;;;;;;;1.50;1.50;;;;;19.07;49.99;100717.09;2105693;28;47907;-59
2022/04/13 00:57:59;;;;;;;;;2.00;1.25;;;;;19.06;50.12;100713.53;2108724;27;47572;-56
2022/04/13 00:59:07;;;;;;;;;2.00;2.00;;;;;19.07;49.94;100719.78;2099822;28;47630;-60
2022/04/13 01:00:12;;;;;;;;;1.25;1.00;;;;;19.07;50.34;100709.03;2097281;28;48152;-58
2022/04/13 01:01:15;;;;;;;;;2.25;1.75;;;;;19.07;50.19;100715.28;2105555;28;48163;-58
2022/04/13 01:02:16;;;;;;;;;2.25;1.75;;;;;19.07;50.22;100717.97;2108791;27;48148;-56
2022/04/13 01:03:25;;;;;;;;;2.25;1.00;;;;;19.06;50.11;100707.31;2105516;28;47553;-57
2022/04/13 01:04:31;;;;;;;;;2.00;1.75;;;;;19.06;50.35;100710.84;2108299;27;47412;-59
2022/04/13 01:05:32;;;;;;;;;2.00;2.00;;;;;19.04;50.10;100707.34;2108545;27;47402;-58
2022/04/13 01:06:33;;;;;;;;;1.00;1.00;;;;;19.05;50.43;100714.47;2110058;27;48272;-58
2022/04/13 01:07:35;;;;;;;;;1.25;1.25;;;;;19.06;49.88;100723.44;2102178;28;46911;-59
2022/04/13 01:08:38;;;;;;;;;2.00;1.75;;;;;19.04;50.57;100712.75;2108764;27;47580;-59
2022/04/13 01:09:40;;;;;;;;;1.00;1.00;;;;;19.05;50.34;100710.91;2109107;27;47485;-60
2022/04/13 01:10:42;;;;;;;;;2.50;2.50;;;;;19.03;50.34;100719.06;2109175;27;48300;-58
2022/04/13 01:11:43;;;;;;;;;1.50;1.50;;;;;19.03;50.19;100712.81;2098818;28;48131;-59
2022/04/13 01:12:43;;;;;;;;;2.00;2.00;;;;;19.02;50.15;100719.16;2099320;28;48041;-59
2022/04/13 01:13:44;;;;;;;;;1.00;1.00;;;;;19.01;50.42;100723.69;2109164;27;47849;-58
2022/04/13 01:14:44;;;;;;;;;1.00;1.00;;;;;19.02;50.46;100724.53;2106235;27;47412;-59
2022/04/13 01:15:45;;;;;;;;;1.67;1.67;;;;;19.01;50.24;100714.75;2107764;27;47884;-57
2022/04/13 01:16:45;;;;;;;;;2.33;2.00;;;;;18.99;50.32;100714.84;2108453;27;47373;-58
2022/04/13 01:17:48;;;;;;;;;2.00;2.00;;;;;18.99;50.25;100717.53;2095420;28;48163;-57
2022/04/13 01:18:48;;;;;;;;;1.00;1.00;;;;;19.00;50.59;100710.31;2095536;28;48294;-58
2022/04/13 01:19:49;;;;;;;;;1.33;1.33;;;;;18.99;50.31;100714.84;2108957;27;47956;-58
2022/04/13 01:20:53;;;;;;;;;2.00;2.00;;;;;18.99;50.51;100717.53;2105730;27;47115;-59
2022/04/13 01:21:58;;;;;;;;;4.00;3.25;;;;;18.99;50.22;100711.28;2112467;27;47369;-57
2022/04/13 01:22:59;;;;;;;;;1.00;1.00;;;;;18.99;50.69;100713.97;2104883;28;47790;-57
2022/04/13 01:24:02;;;;;;;;;1.67;1.33;;;;;19.00;50.36;100715.69;2096951;28;47862;-58
2022/04/13 01:25:02;;;;;;;;;3.00;2.00;;;;;18.98;50.42;100713.09;2099867;28;47380;-58
2022/04/13 01:26:03;;;;;;;;;1.67;1.67;;;;;18.99;50.73;100717.53;2097652;28;47520;-57
2022/04/13 01:27:03;;;;;;;;;2.67;2.67;;;;;18.98;50.57;100718.47;2104707;27;47942;-58
2022/04/13 01:28:04;;;;;;;;;1.00;1.00;;;;;18.99;50.41;100717.53;2106724;27;47334;-57
2022/04/13 01:29:05;;;;;;;;;1.67;1.67;;;;;18.99;50.56;100719.34;2107218;27;47392;-58
2022/04/13 01:30:07;;;;;;;;;0.75;0.75;;;;;18.98;50.34;100718.47;2109053;27;47459;-58
2022/04/13 01:31:08;;;;;;;;;2.50;1.50;;;;;18.97;50.56;100715.88;2105576;27;47398;-58
2022/04/13 01:32:12;;;;;;;;;2.00;2.00;;;;;18.98;50.56;100725.69;2108123;27;47239;-57
2022/04/13 01:33:13;;;;;;;;;2.00;2.00;;;;;18.98;50.75;100723.00;2108683;27;47238;-59
2022/04/13 01:34:13;;;;;;;;;2.25;2.25;;;;;18.98;50.63;100723.00;2105644;27;47539;-58
2022/04/13 01:35:14;;;;;;;;;1.33;1.33;;;;;18.98;50.69;100729.25;2109145;27;48259;-58
2022/04/13 01:36:14;;;;;;;;;3.00;3.00;;;;;18.99;50.58;100732.78;2107731;27;47658;-60
2022/04/13 01:37:16;;;;;;;;;1.67;1.67;;;;;18.99;50.53;100738.19;2105745;27;47857;-60
2022/04/13 01:38:16;;;;;;;;;0.75;0.75;;;;;18.98;50.85;100736.44;2111662;27;47476;-57
2022/04/13 01:39:16;;;;;;;;;3.00;3.00;;;;;18.98;50.79;100740.00;2111839;27;47704;-56
2022/04/13 01:40:17;;;;;;;;;1.00;1.00;;;;;18.97;50.67;100738.25;2104955;28;47208;-57
2022/04/13 01:41:18;;;;;;;;;1.00;1.00;;;;;18.97;50.83;100743.63;2108938;27;47756;-58
2022/04/13 01:42:18;;;;;;;;;3.00;3.00;;;;;18.96;50.78;100739.22;2105051;28;47827;-58
2022/04/13 01:43:19;;;;;;;;;2.00;2.00;;;;;18.95;50.93;100734.78;2100857;28;48754;-58
2022/04/13 01:44:19;;;;;;;;;2.00;2.00;;;;;18.96;50.51;100731.16;2108681;27;47482;-59
2022/04/13 01:45:19;;;;;;;;;2.00;2.00;;;;;18.96;51.00;100730.28;2105718;27;47319;-57
2022/04/13 01:46:20;;;;;;;;;2.33;2.33;;;;;18.96;50.78;100733.84;2107393;27;48714;-60
2022/04/13 01:47:20;;;;;;;;;0.67;0.67;;;;;18.97;50.87;100735.56;2106809;27;47715;-58
2022/04/13 01:48:21;;;;;;;;;2.00;2.00;;;;;18.95;51.17;100733.94;2107230;27;47535;-58
2022/04/13 01:49:21;;;;;;;;;2.00;2.00;;;;;18.95;50.94;100736.63;2109761;27;47867;-58
2022/04/13 01:50:22;;;;;;;;;1.33;1.33;;;;;18.95;50.93;100736.63;2113449;27;47642;-58
2022/04/13 01:51:22;;;;;;;;;2.00;1.67;;;;;18.94;51.08;100738.44;2105510;27;47772;-59
2022/04/13 01:52:23;;;;;;;;;0.00;0.00;;;;;18.93;51.10;100735.81;2113207;27;47489;-57
2022/04/13 01:53:23;;;;;;;;;1.33;1.33;;;;;18.93;51.18;100743.88;2105796;27;47584;-57
2022/04/13 01:54:23;;;;;;;;;1.33;1.33;;;;;18.92;51.04;100744.84;2111386;27;47197;-58
2022/04/13 01:55:24;;;;;;;;;2.00;1.00;;;;;18.91;51.20;100738.59;2111572;27;47541;-58
2022/04/13 01:56:24;;;;;;;;;4.00;1.67;;;;;18.92;50.95;100745.69;2111081;27;47572;-58
2022/04/13 01:57:25;;;;;;;;;2.00;2.00;;;;;18.92;51.10;100734.06;2112133;27;47438;-57
2022/04/13 01:58:25;;;;;;;;;3.00;2.00;;;;;18.92;50.95;100737.63;2087147;28;45706;-58
2022/04/13 01:59:26;;;;;;;;;2.33;2.33;;;;;18.92;51.31;100744.84;2090586;28;48096;-60
2022/04/13 02:00:26;;;;;;;;;0.67;0.67;;;;;18.92;51.07;100744.84;2090616;28;47203;-56
2022/04/13 02:01:27;;;;;;;;;2.00;2.00;;;;;18.92;51.31;100744.84;2087480;28;47414;-60
2022/04/13 02:02:28;;;;;;;;;2.00;1.33;;;;;18.90;50.92;100744.91;2090980;28;47743;-58
2022/04/13 02:03:30;;;;;;;;;2.33;2.33;;;;;18.91;51.27;100740.41;2088372;28;47511;-60
2022/04/13 02:04:31;;;;;;;;;3.00;2.25;;;;;18.91;51.08;100740.41;2095181;28;47835;-58
2022/04/13 02:05:32;;;;;;;;;2.75;2.75;;;;;18.91;51.35;100745.78;2089858;28;48070;-59
2022/04/13 02:06:32;;;;;;;;;2.00;2.00;;;;;18.91;51.44;100753.84;2091882;28;47504;-58
2022/04/13 02:07:33;;;;;;;;;3.00;2.00;;;;;18.91;51.29;100748.47;2086917;28;46313;-57
2022/04/13 02:08:33;;;;;;;;;2.00;2.00;;;;;18.90;51.63;100747.63;2090861;28;47726;-58
2022/04/13 02:09:34;;;;;;;;;1.33;1.33;;;;;18.91;51.60;100751.16;2090501;28;47588;-58
2022/04/13 02:10:34;;;;;;;;;4.33;2.33;;;;;18.90;51.76;100757.50;2088410;28;47575;-59
2022/04/13 02:11:34;;;;;;;;;2.00;1.00;;;;;18.91;51.89;100759.22;2089005;28;47703;-57
2022/04/13 02:12:36;;;;;;;;;2.00;2.00;;;;;18.90;51.69;100762.88;2090378;28;47936;-58
2022/04/13 02:13:38;;;;;;;;;3.00;3.00;;;;;18.89;51.48;100756.63;2089031;28;47575;-58
2022/04/13 02:14:38;;;;;;;;;2.00;2.00;;;;;18.89;51.91;100755.78;2087186;28;47693;-59
2022/04/13 02:15:39;;;;;;;;;2.00;2.00;;;;;18.89;51.75;100756.63;2086962;28;45278;-57
2022/04/13 02:16:40;;;;;;;;;3.67;1.67;;;;;18.89;51.92;100753.06;2087734;28;47098;-57
2022/04/13 02:17:40;;;;;;;;;2.00;2.00;;;;;18.88;51.82;100754.03;2086946;28;47475;-58
2022/04/13 02:18:41;;;;;;;;;1.33;1.33;;;;;18.87;52.04;100763.94;2087976;28;47667;-57
2022/04/13 02:19:41;;;;;;;;;2.00;2.00;;;;;18.86;51.98;100754.13;2087887;28;46890;-56
2022/04/13 02:20:41;;;;;;;;;3.00;2.67;;;;;18.87;52.19;100761.22;2087093;28;47352;-57
2022/04/13 02:21:42;;;;;;;;;3.00;1.33;;;;;18.86;52.00;100756.81;2087534;28;48099;-57
2022/04/13 02:22:45;;;;;;;;;2.67;2.67;;;;;18.87;52.35;100758.53;2087468;28;47255;-57
2022/04/13 02:23:46;;;;;;;;;0.75;0.75;;;;;18.86;52.14;100756.81;2087133;28;47724;-58
2022/04/13 02:24:47;;;;;;;;;3.00;3.00;;;;;18.87;51.96;100760.38;2062186;28;47740;-58
2022/04/13 02:25:47;;;;;;;;;4.00;4.00;;;;;18.88;52.21;100764.78;2062733;28;48002;-60
2022/04/13 02:26:47;;;;;;;;;1.67;1.67;;;;;18.87;52.06;100758.53;2070468;28;47587;-58
2022/04/13 02:27:48;;;;;;;;;4.67;3.67;;;;;18.87;51.96;100757.69;2069795;28;47819;-58
2022/04/13 02:28:49;;;;;;;;;3.00;2.00;;;;;18.87;52.15;100768.44;2095229;28;47662;-59
2022/04/13 02:29:50;;;;;;;;;3.00;2.75;;;;;18.86;52.06;100756.81;2096347;27;47841;-58
2022/04/13 02:30:50;;;;;;;;;2.67;2.67;;;;;18.87;52.17;100761.22;2103639;28;48284;-58
2022/04/13 02:31:50;;;;;;;;;1.00;1.00;;;;;18.87;51.98;100763.06;2086399;28;47818;-59
2022/04/13 02:32:51;;;;;;;;;2.00;2.00;;;;;18.86;51.81;100767.56;2096172;28;47627;-56
2022/04/13 02:33:53;;;;;;;;;2.00;2.00;;;;;18.86;52.11;100761.31;2112975;27;47396;-57
2022/04/13 02:34:54;;;;;;;;;1.75;1.75;;;;;18.86;52.25;100762.19;2110709;27;48116;-57
2022/04/13 02:35:54;;;;;;;;;0.33;0.33;;;;;18.86;51.89;100761.31;2110780;27;47671;-55
2022/04/13 02:36:56;;;;;;;;;4.00;3.00;;;;;18.84;52.21;100760.53;2113158;27;47411;-56
2022/04/13 02:37:57;;;;;;;;;3.00;3.00;;;;;18.85;52.14;100770.34;2101589;28;47492;-57
2022/04/13 02:38:57;;;;;;;;;2.33;2.33;;;;;18.85;51.97;100764.97;2094335;28;48009;-57
2022/04/13 02:39:58;;;;;;;;;4.33;2.33;;;;;18.85;52.03;100765.84;2102477;27;47556;-58
2022/04/13 02:40:59;;;;;;;;;2.67;2.67;;;;;18.84;52.10;100769.47;2110627;27;47456;-59
2022/04/13 02:42:00;;;;;;;;;2.00;2.00;;;;;18.84;52.02;100760.53;2103887;28;47967;-57
2022/04/13 02:43:00;;;;;;;;;2.67;2.67;;;;;18.84;51.88;100766.78;2101166;28;47544;-58
2022/04/13 02:44:01;;;;;;;;;3.33;3.00;;;;;18.85;52.17;100767.66;2109150;27;47651;-57
2022/04/13 02:45:03;;;;;;;;;2.33;2.33;;;;;18.84;52.08;100766.78;2103718;28;47342;-58
2022/04/13 02:46:03;;;;;;;;;3.00;2.00;;;;;18.83;52.10;100770.44;2098953;28;47384;-57
2022/04/13 02:47:04;;;;;;;;;3.33;3.00;;;;;18.82;52.18;100768.69;2104480;27;47815;-58
2022/04/13 02:48:04;;;;;;;;;3.00;3.00;;;;;18.81;52.11;100765.16;2104260;28;47491;-58
2022/04/13 02:49:05;;;;;;;;;2.67;2.67;;;;;18.82;51.71;100768.69;2106937;27;48151;-57
2022/04/13 02:50:06;;;;;;;;;3.67;3.67;;;;;18.81;52.39;100766.97;2103027;28;47515;-59
2022/04/13 02:51:07;;;;;;;;;3.00;3.00;;;;;18.81;51.90;100766.97;2100872;27;47661;-56
2022/04/13 02:52:07;;;;;;;;;1.33;1.33;;;;;18.81;52.08;100772.34;2113402;27;47703;-58
2022/04/13 02:53:08;;;;;;;;;4.33;3.00;;;;;18.80;51.93;100766.09;2113069;27;47656;-59
2022/04/13 02:54:08;;;;;;;;;3.67;3.00;;;;;18.80;52.22;100763.41;2110205;27;47155;-57
2022/04/13 02:55:10;;;;;;;;;1.00;1.00;;;;;18.80;51.84;100765.19;2104567;28;47774;-58
2022/04/13 02:56:11;;;;;;;;;2.25;2.00;;;;;18.80;52.11;100763.41;2108270;27;47840;-57
2022/04/13 02:57:11;;;;;;;;;3.00;2.00;;;;;18.79;52.10;100758.09;2106659;27;47591;-58
2022/04/13 02:58:11;;;;;;;;;3.00;3.00;;;;;18.78;51.85;100757.22;2105207;27;47095;-58
2022/04/13 02:59:12;;;;;;;;;4.67;2.00;;;;;18.78;52.03;100756.34;2107929;27;47603;-59
2022/04/13 03:00:13;;;;;;;;;1.00;1.00;;;;;18.77;52.14;100760.88;2105280;27;47759;-60
2022/04/13 03:01:13;;;;;;;;;2.00;2.00;;;;;18.77;52.15;100757.31;2107101;27;47765;-60
2022/04/13 03:02:14;;;;;;;;;3.00;3.00;;;;;18.76;52.15;100764.50;2107919;27;47938;-58
2022/04/13 03:03:16;;;;;;;;;3.25;3.00;;;;;18.77;52.04;100760.00;2104608;28;47694;-56
2022/04/13 03:04:16;;;;;;;;;2.00;2.00;;;;;18.77;52.30;100758.19;2108043;27;46909;-56
2022/04/13 03:05:17;;;;;;;;;3.67;3.67;;;;;18.77;52.30;100758.19;2107793;27;45649;-59
2022/04/13 03:06:17;;;;;;;;;2.00;2.00;;;;;18.78;52.26;100761.72;2108096;27;47879;-59
2022/04/13 03:07:18;;;;;;;;;2.67;2.33;;;;;18.78;52.33;100759.91;2112933;27;47585;-58
2022/04/13 03:08:18;;;;;;;;;2.00;1.33;;;;;18.78;52.31;100759.03;2112976;27;47756;-57
2022/04/13 03:09:19;;;;;;;;;1.50;1.50;;;;;18.77;52.57;100765.38;2111397;27;47704;-58
2022/04/13 03:10:19;;;;;;;;;2.33;2.00;;;;;18.76;52.56;100763.66;2104485;27;47772;-59
2022/04/13 03:11:19;;;;;;;;;2.33;2.33;;;;;18.75;52.69;100765.47;2104278;28;47360;-56
2022/04/13 03:12:20;;;;;;;;;2.00;2.00;;;;;18.76;52.47;100769.03;2086003;28;45984;-57
2022/04/13 03:13:21;;;;;;;;;2.00;2.00;;;;;18.75;52.39;100768.16;2088960;28;47471;-57
2022/04/13 03:14:23;;;;;;;;;2.33;2.33;;;;;18.75;52.67;100770.84;2113037;27;47634;-58
2022/04/13 03:15:24;;;;;;;;;3.75;2.00;;;;;18.75;52.58;100769.97;2100909;28;47920;-58
2022/04/13 03:16:24;;;;;;;;;4.33;4.33;;;;;18.75;52.63;100775.34;2088879;28;47775;-56
2022/04/13 03:17:24;;;;;;;;;4.00;3.00;;;;;18.74;52.75;100771.78;2103707;28;47587;-58
2022/04/13 03:18:25;;;;;;;;;1.33;1.00;;;;;18.74;52.68;100770.94;2111244;27;47867;-58
2022/04/13 03:19:25;;;;;;;;;3.33;2.33;;;;;18.74;52.83;100774.50;2104625;28;47573;-58
2022/04/13 03:20:26;;;;;;;;;2.00;2.00;;;;;18.74;53.05;100773.63;2108025;27;48264;-58
2022/04/13 03:21:27;;;;;;;;;3.00;3.00;;;;;18.74;52.74;100779.00;2107515;27;47544;-59
2022/04/13 03:22:27;;;;;;;;;2.25;2.25;;;;;18.72;53.13;100784.47;2105061;27;47381;-59
2022/04/13 03:23:28;;;;;;;;;4.00;4.00;;;;;18.73;53.06;100788.88;2108019;27;47949;-58
2022/04/13 03:24:28;;;;;;;;;5.33;3.67;;;;;18.72;53.23;100789.84;2105957;27;47869;-59
2022/04/13 03:25:29;;;;;;;;;3.00;3.00;;;;;18.72;53.22;100794.34;2106389;27;47653;-57
2022/04/13 03:26:30;;;;;;;;;3.00;2.00;;;;;18.71;53.30;100789.91;2107063;27;47561;-57
2022/04/13 03:27:30;;;;;;;;;4.33;3.00;;;;;18.70;53.39;100785.50;2104629;28;47473;-59
2022/04/13 03:28:30;;;;;;;;;2.33;2.33;;;;;18.69;53.25;100787.31;2102631;27;46492;-58
2022/04/13 03:29:31;;;;;;;;;4.00;4.00;;;;;18.69;53.67;100786.47;2104784;27;48234;-58
2022/04/13 03:30:31;;;;;;;;;3.33;2.67;;;;;18.68;53.70;100785.59;2112834;27;47504;-58
2022/04/13 03:31:31;;;;;;;;;3.33;3.33;;;;;18.68;53.69;100792.78;2082289;28;47806;-57
2022/04/13 03:32:39;;;;;;;;;2.00;2.00;;;;;18.67;53.57;100797.25;2078177;28;47583;-57
2022/04/13 03:33:39;;;;;;;;;4.25;3.00;;;;;18.66;53.83;100806.28;2111968;27;47862;-57
2022/04/13 03:34:40;;;;;;;;;4.67;3.33;;;;;18.65;53.76;100799.16;2112254;27;47294;-59
2022/04/13 03:35:40;;;;;;;;;3.00;3.00;;;;;18.66;53.95;100802.72;2112692;27;47868;-59
2022/04/13 03:36:41;;;;;;;;;5.00;5.00;;;;;18.66;54.18;100806.28;2112484;27;47721;-56
2022/04/13 03:37:41;;;;;;;;;3.00;2.00;;;;;18.65;54.42;100812.59;2112495;27;47444;-59
2022/04/13 03:38:42;;;;;;;;;3.00;3.00;;;;;18.65;54.40;100804.53;2112482;27;48100;-57
2022/04/13 03:39:42;;;;;;;;;4.00;4.00;;;;;18.64;54.35;100807.31;2112287;27;47630;-59
2022/04/13 03:40:43;;;;;;;;;2.33;2.33;;;;;18.64;54.52;100812.69;2112836;27;47733;-56
2022/04/13 03:41:44;;;;;;;;;5.33;4.00;;;;;18.63;54.83;100808.25;2112109;27;47943;-57
2022/04/13 03:42:44;;;;;;;;;4.33;3.67;;;;;18.63;54.75;100819.00;2112333;27;47370;-59
2022/04/13 03:43:45;;;;;;;;;3.75;3.75;;;;;18.61;55.06;100812.84;2112928;27;47767;-59
2022/04/13 03:44:45;;;;;;;;;3.00;3.00;;;;;18.60;55.01;100819.16;2112067;27;47743;-57
2022/04/13 03:45:46;;;;;;;;;7.00;5.67;;;;;18.59;55.29;100817.44;2112392;27;47419;-58
2022/04/13 03:46:46;;;;;;;;;6.00;4.67;;;;;18.60;55.45;100817.34;2104426;27;47862;-58
2022/04/13 03:47:47;;;;;;;;;7.33;7.33;;;;;18.59;55.57;100820.97;2108834;27;47246;-58
2022/04/13 03:48:47;;;;;;;;;4.33;4.33;;;;;18.59;55.55;100820.13;2112486;27;47811;-56
2022/04/13 03:49:48;;;;;;;;;3.00;3.00;;;;;18.57;55.61;100820.19;2112759;27;47466;-57
2022/04/13 03:50:50;;;;;;;;;3.00;3.00;;;;;18.56;55.74;100815.78;2112476;27;47645;-57
2022/04/13 03:51:50;;;;;;;;;2.75;2.75;;;;;18.54;55.51;100823.91;2112563;27;47493;-58
2022/04/13 03:52:50;;;;;;;;;3.00;3.00;;;;;18.53;55.69;100819.47;2112413;27;48279;-57
2022/04/13 03:53:51;;;;;;;;;4.00;4.00;;;;;18.53;55.96;100818.59;2110419;27;47375;-56
2022/04/13 03:54:52;;;;;;;;;4.00;4.00;;;;;18.52;56.10;100824.94;2112761;27;45916;-59
2022/04/13 03:55:52;;;;;;;;;2.25;2.25;;;;;18.49;56.18;100817.91;2112563;27;46924;-59
2022/04/13 03:56:53;;;;;;;;;3.50;3.00;;;;;18.48;56.15;100816.16;2112353;27;48088;-58
2022/04/13 03:57:54;;;;;;;;;4.50;4.50;;;;;18.48;56.12;100818.00;2103398;28;47800;-58
2022/04/13 03:58:54;;;;;;;;;5.33;3.00;;;;;18.47;56.14;100813.56;2104389;28;47731;-59
2022/04/13 03:59:54;;;;;;;;;4.00;4.00;;;;;18.46;56.31;100811.84;2105537;27;47668;-57
2022/04/13 04:00:55;;;;;;;;;0.00;0.00;;;;;18.45;56.38;100816.34;2098174;28;47810;-58
2022/04/13 04:01:55;;;;;;;;;3.67;3.67;;;;;18.44;56.34;100817.28;2099060;28;47424;-57
2022/04/13 04:02:56;;;;;;;;;4.00;4.00;;;;;18.42;56.31;100824.56;2087534;28;47561;-55
2022/04/13 04:03:56;;;;;;;;;4.33;4.33;;;;;18.40;56.49;100826.44;2082533;28;47824;-57
2022/04/13 04:04:56;;;;;;;;;4.00;4.00;;;;;18.39;56.42;100821.16;2097569;28;47764;-58
2022/04/13 04:05:57;;;;;;;;;2.67;2.67;;;;;18.38;56.55;100824.78;2097465;28;47568;-58
2022/04/13 04:06:57;;;;;;;;;3.67;2.33;;;;;18.36;56.38;100824.88;2097043;28;47552;-58
2022/04/13 04:07:57;;;;;;;;;5.33;4.00;;;;;18.37;56.35;100828.44;2097403;28;47565;-57
2022/04/13 04:08:58;;;;;;;;;5.00;4.33;;;;;18.35;56.34;100820.44;2096833;28;48007;-58
2022/04/13 04:09:58;;;;;;;;;6.67;5.00;;;;;18.35;56.60;100823.16;2097373;28;47112;-60
2022/04/13 04:10:59;;;;;;;;;3.00;2.00;;;;;18.34;56.48;100821.41;2097571;28;48222;-59
2022/04/13 04:11:59;;;;;;;;;6.00;5.00;;;;;18.34;56.50;100821.41;2097125;28;47377;-59
2022/04/13 04:12:59;;;;;;;;;5.00;5.00;;;;;18.34;56.78;100821.41;2098995;28;47841;-59
2022/04/13 04:14:00;;;;;;;;;5.00;5.00;;;;;18.33;56.48;100822.34;2113665;27;47544;-59
2022/04/13 04:15:01;;;;;;;;;3.00;3.00;;;;;18.32;56.79;100823.31;2110671;27;48094;-59
2022/04/13 04:16:01;;;;;;;;;3.33;2.67;;;;;18.32;56.96;100820.63;2105667;28;47804;-59
2022/04/13 04:17:02;;;;;;;;;3.00;3.00;;;;;18.32;56.92;100826.00;2098822;28;47250;-58
2022/04/13 04:18:02;;;;;;;;;5.00;5.00;;;;;18.32;56.68;100831.38;2088241;28;47616;-57
2022/04/13 04:19:02;;;;;;;;;6.00;5.00;;;;;18.30;56.90;100829.72;2080209;28;47351;-59
2022/04/13 04:20:05;;;;;;;;;4.00;4.00;;;;;18.28;57.25;100827.09;2088031;28;47608;-57
2022/04/13 04:21:05;;;;;;;;;5.25;5.25;;;;;18.28;57.27;100832.44;2096822;28;47309;-58
2022/04/13 04:22:05;;;;;;;;;5.00;5.00;;;;;18.27;57.35;100830.72;2096984;28;47544;-60
2022/04/13 04:23:06;;;;;;;;;6.33;6.33;;;;;18.27;57.44;100837.91;2097284;28;47796;-57
2022/04/13 04:24:07;;;;;;;;;8.00;4.00;;;;;18.26;57.23;100831.66;2096779;28;47268;-58
2022/04/13 04:25:08;;;;;;;;;6.50;5.75;;;;;18.26;57.55;100838.88;2096825;28;47976;-59
2022/04/13 04:26:09;;;;;;;;;3.50;3.50;;;;;18.24;57.34;100839.81;2097029;28;47625;-59
2022/04/13 04:27:10;;;;;;;;;5.00;5.00;;;;;18.22;57.89;100833.66;2104953;28;47518;-58
2022/04/13 04:28:11;;;;;;;;;4.00;4.00;;;;;18.22;57.86;100843.53;2105699;28;47559;-58
2022/04/13 04:29:11;;;;;;;;;6.33;5.33;;;;;18.21;57.95;100841.78;2105504;28;47524;-57
2022/04/13 04:30:11;;;;;;;;;6.33;6.00;;;;;18.19;57.66;100849.06;2105523;28;47917;-56
2022/04/13 04:31:12;;;;;;;;;4.00;4.00;;;;;18.18;58.10;100834.78;2105551;28;46477;-58
2022/04/13 04:32:13;;;;;;;;;3.00;3.00;;;;;18.18;58.00;100836.59;2105423;28;48144;-55
2022/04/13 04:33:14;;;;;;;;;5.00;5.00;;;;;18.18;57.92;100850.88;2105508;28;47732;-57
2022/04/13 04:34:14;;;;;;;;;5.50;5.25;;;;;18.17;58.11;100850.97;2102690;28;47658;-58
2022/04/13 04:35:15;;;;;;;;;4.67;3.33;;;;;18.17;57.80;100857.22;2088186;28;47630;-58
2022/04/13 04:36:15;;;;;;;;;5.00;5.00;;;;;18.17;57.94;100853.66;2093566;28;47256;-58
2022/04/13 04:37:16;;;;;;;;;3.33;3.33;;;;;18.16;58.06;100849.19;2105475;28;47867;-57
2022/04/13 04:38:16;;;;;;;;;5.33;4.00;;;;;18.16;58.29;100858.13;2105393;28;46500;-57
2022/04/13 04:39:17;;;;;;;;;7.33;6.00;;;;;18.16;58.20;100851.88;2109756;27;47772;-56
2022/04/13 04:40:17;;;;;;;;;6.00;5.00;;;;;18.15;58.09;100851.00;2111416;27;47738;-57
2022/04/13 04:41:18;;;;;;;;;4.00;4.00;;;;;18.15;58.24;100855.53;2113043;27;47102;-59
2022/04/13 04:42:18;;;;;;;;;4.67;4.00;;;;;18.15;58.20;100858.22;2110383;27;47895;-58
2022/04/13 04:43:20;;;;;;;;;4.33;4.33;;;;;18.14;58.40;100857.34;2104032;28;48047;-58